Time;durP1;ratioP1;P1;durP2;ratioP2;P2;SDS_P1;SDS_P2;PMS_P1;PMS_P2;Temp;Humidity;BMP_temperature;BMP_pressure;BME280_temperature;BME280_humidity;BME280_pressure;Samples;Min_cycle;Max_cycle;Signal;HPM_P1;HPM_P2
2023/08/24 00:01:37;;;;;;;9.70;6.55;;;;;;;32.16;33.27;96498.88;5079027;28;20016;-31
2023/08/24 00:04:03;;;;;;;7.35;6.60;;;;;;;32.23;32.56;96493.25;5087099;28;20025;-31
2023/08/24 00:06:28;;;;;;;8.05;6.55;;;;;;;32.30;32.54;96494.50;5079380;28;20024;-31
2023/08/24 00:08:54;;;;;;;10.15;6.63;;;;;;;32.45;32.14;96500.75;5087521;28;20024;-31
2023/08/24 00:11:20;;;;;;;8.27;7.15;;;;;;;32.41;32.59;96502.47;5079189;28;20518;-30
2023/08/24 00:13:52;;;;;;;8.77;6.93;;;;;;;32.42;32.46;96499.09;5094668;28;20035;-31
2023/08/24 00:16:19;;;;;;;7.83;7.10;;;;;;;32.58;31.62;96507.41;5086669;28;20020;-31
2023/08/24 00:18:44;;;;;;;7.55;6.82;;;;;;;32.28;31.90;96506.31;5083999;28;20276;-31
2023/08/24 00:21:13;;;;;;;7.80;6.88;;;;;;;32.42;31.95;96507.53;5089644;28;20020;-32
2023/08/24 00:23:38;;;;;;;10.77;7.15;;;;;;;32.21;31.77;96506.34;5084307;28;20107;-31
2023/08/24 00:26:04;;;;;;;7.97;6.75;;;;;;;32.21;32.03;96504.31;5083211;28;20154;-30
2023/08/24 00:28:29;;;;;;;9.85;7.40;;;;;;;32.24;32.61;96500.34;5076585;28;20089;-31
2023/08/24 00:30:55;;;;;;;7.47;6.38;;;;;;;32.26;32.50;96511.75;5079262;28;20458;-31
2023/08/24 00:33:20;;;;;;;11.57;7.15;;;;;;;32.34;32.29;96508.91;5086706;28;20477;-31
2023/08/24 00:35:46;;;;;;;8.20;7.05;;;;;;;32.27;32.39;96504.09;5084911;28;20461;-31
2023/08/24 00:38:11;;;;;;;7.45;6.75;;;;;;;32.30;31.82;96509.28;5080435;28;20090;-31
2023/08/24 00:40:38;;;;;;;8.27;7.47;;;;;;;32.33;32.38;96510.97;5079701;28;20020;-31
2023/08/24 00:43:04;;;;;;;9.40;7.30;;;;;;;32.34;31.94;96506.84;5076522;28;20050;-31
2023/08/24 00:45:32;;;;;;;8.35;7.55;;;;;;;32.38;31.81;96503.63;5083033;28;20481;-31
2023/08/24 00:47:57;;;;;;;8.00;7.20;;;;;;;32.63;31.35;96506.44;5077111;28;20034;-31
2023/08/24 00:50:23;;;;;;;8.95;8.15;;;;;;;32.42;31.74;96498.34;5081434;28;20021;-31
2023/08/24 00:52:49;;;;;;;8.38;7.55;;;;;;;32.50;31.60;96498.31;5090094;28;20038;-30
2023/08/24 00:55:16;;;;;;;8.88;7.35;;;;;;;32.24;31.61;96494.75;5082553;28;20027;-31
2023/08/24 00:57:42;;;;;;;8.25;7.55;;;;;;;32.45;31.78;96497.22;5081504;28;20035;-31
2023/08/24 01:00:11;;;;;;;8.15;7.40;;;;;;;32.45;31.69;96497.97;5077539;28;20478;-31
2023/08/24 01:02:40;;;;;;;9.27;7.32;;;;;;;32.19;32.20;96495.69;5086867;28;20540;-31
2023/08/24 01:05:06;;;;;;;8.07;7.35;;;;;;;32.18;32.36;96499.81;5085324;28;20091;-32
2023/08/24 01:07:37;;;;;;;11.30;7.55;;;;;;;32.35;31.87;96494.28;5085660;28;20124;-31
2023/08/24 01:10:06;;;;;;;8.05;7.25;;;;;;;32.36;31.97;96492.97;5079611;28;20377;-31
2023/08/24 01:12:40;;;;;;;8.52;7.47;;;;;;;32.44;31.98;96488.03;5082148;28;20033;-30
2023/08/24 01:15:06;;;;;;;8.63;7.70;;;;;;;32.43;32.11;96489.34;5082608;28;20036;-31
2023/08/24 01:17:32;;;;;;;8.50;7.70;;;;;;;32.31;32.47;96476.34;5082538;28;20396;-31
2023/08/24 01:19:59;;;;;;;10.95;7.32;;;;;;;32.40;32.00;96482.06;5079620;28;20024;-31
2023/08/24 01:22:27;;;;;;;8.98;7.93;;;;;;;32.32;32.21;96484.22;5084845;28;20030;-31
2023/08/24 01:25:14;;;;;;;7.93;7.13;;;;;;;32.47;32.25;96484.09;5078780;28;20052;-31
2023/08/24 01:27:41;;;;;;;8.60;7.38;;;;;;;32.31;32.24;96485.53;5084580;28;20035;-31
2023/08/24 01:30:08;;;;;;;9.95;7.38;;;;;;;32.52;32.28;96490.06;5086204;28;20028;-32
2023/08/24 01:32:35;;;;;;;11.43;7.00;;;;;;;32.42;32.13;96490.69;5078209;28;20664;-31
2023/08/24 01:35:03;;;;;;;7.88;7.07;;;;;;;32.40;32.35;96492.56;5089447;28;20028;-31
2023/08/24 01:37:29;;;;;;;10.45;7.82;;;;;;;32.37;32.51;96491.66;5074922;28;20514;-31
2023/08/24 01:40:14;;;;;;;8.13;7.32;;;;;;;32.50;32.30;96489.88;5083673;28;20057;-31
2023/08/24 01:42:59;;;;;;;9.82;7.90;;;;;;;32.47;32.11;96497.38;5078233;28;20024;-31
2023/08/24 01:45:29;;;;;;;10.52;7.80;;;;;;;32.43;31.97;96494.97;5082407;28;20491;-31
2023/08/24 01:47:55;;;;;;;9.15;7.72;;;;;;;32.37;31.86;96497.28;5082443;28;20070;-32
2023/08/24 01:50:22;;;;;;;8.88;7.95;;;;;;;32.21;32.28;96509.91;5081872;28;20354;-31
2023/08/24 01:52:48;;;;;;;8.30;7.00;;;;;;;32.03;32.29;96503.44;5081739;28;20020;-31
2023/08/24 01:55:15;;;;;;;8.15;7.32;;;;;;;32.08;32.16;96510.16;5083437;28;20388;-31
2023/08/24 01:57:40;;;;;;;10.57;7.38;;;;;;;32.34;32.09;96509.63;5079802;28;20047;-31
2023/08/24 02:00:07;;;;;;;8.10;7.07;;;;;;;32.09;32.26;96500.41;5081696;28;20051;-31
2023/08/24 02:02:35;;;;;;;8.50;7.70;;;;;;;32.18;31.80;96505.44;5085323;28;20027;-31
2023/08/24 02:05:00;;;;;;;8.23;7.43;;;;;;;32.19;31.82;96498.50;5078280;28;20039;-31
2023/08/24 02:07:26;;;;;;;7.28;6.57;;;;;;;32.33;31.44;96502.53;5083709;28;20028;-31
2023/08/24 02:09:51;;;;;;;7.78;6.75;;;;;;;32.22;31.46;96502.25;5084957;28;20365;-32
2023/08/24 02:12:16;;;;;;;9.48;7.20;;;;;;;32.24;31.07;96505.22;5083256;28;20393;-31
2023/08/24 02:14:42;;;;;;;11.48;6.93;;;;;;;32.01;31.40;96508.13;5081581;28;20461;-31
2023/08/24 02:17:08;;;;;;;7.35;6.63;;;;;;;31.95;31.70;96502.72;5080643;28;20028;-30
2023/08/24 02:19:34;;;;;;;8.52;6.93;;;;;;;31.88;32.07;96495.13;5076785;28;20028;-31
2023/08/24 02:21:59;;;;;;;8.30;6.18;;;;;;;32.08;31.66;96498.94;5084936;28;20024;-32
2023/08/24 02:24:25;;;;;;;8.50;6.60;;;;;;;32.04;31.59;96498.56;5083741;28;20012;-31
2023/08/24 02:26:50;;;;;;;6.82;6.22;;;;;;;31.89;31.56;96498.66;5088554;28;20107;-30
2023/08/24 02:29:15;;;;;;;8.23;6.38;;;;;;;32.08;31.66;96498.94;5081015;28;20075;-31
2023/08/24 02:31:41;;;;;;;9.35;5.95;;;;;;;31.99;31.08;96493.94;5081535;28;20021;-30
2023/08/24 02:34:07;;;;;;;6.95;5.75;;;;;;;31.92;31.19;96503.88;5080873;28;20485;-31
2023/08/24 02:36:33;;;;;;;8.23;5.78;;;;;;;31.97;30.84;96493.75;5080848;28;20020;-32
2023/08/24 02:38:59;;;;;;;7.50;5.50;;;;;;;31.81;31.43;96503.56;5083118;28;20116;-31
2023/08/24 02:41:26;;;;;;;7.10;5.55;;;;;;;32.11;30.84;96500.59;5084451;28;20061;-31
2023/08/24 02:43:51;;;;;;;6.97;5.63;;;;;;;32.00;30.86;96504.59;5083079;28;20024;-31
2023/08/24 02:46:18;;;;;;;5.82;5.30;;;;;;;32.08;30.39;96491.25;5084530;28;20020;-31
2023/08/24 02:48:44;;;;;;;7.32;5.57;;;;;;;32.05;30.28;96483.97;5084439;28;20020;-30
2023/08/24 02:51:10;;;;;;;9.20;5.57;;;;;;;31.89;30.42;96479.03;5083108;28;20024;-31
2023/08/24 02:53:36;;;;;;;5.80;5.30;;;;;;;31.92;30.30;96480.69;5079171;28;20025;-30
2023/08/24 02:56:02;;;;;;;6.18;5.57;;;;;;;31.93;30.42;96482.91;5080817;28;20107;-30
2023/08/24 02:58:28;;;;;;;6.53;5.28;;;;;;;31.70;30.45;96480.25;5084214;28;20369;-31
2023/08/24 03:00:54;;;;;;;7.55;5.53;;;;;;;32.03;30.51;96486.59;5077342;28;20051;-30
2023/08/24 03:03:19;;;;;;;6.95;5.60;;;;;;;31.93;30.56;96477.31;5080519;28;20020;-31
2023/08/24 03:05:56;;;;;;;7.85;5.47;;;;;;;31.87;30.37;96482.41;5080468;28;20035;-31
2023/08/24 03:08:21;;;;;;;7.78;6.30;;;;;;;31.83;30.73;96475.69;5074750;28;20111;-31
2023/08/24 03:10:47;;;;;;;8.95;6.72;;;;;;;31.75;31.22;96479.28;5084305;28;20103;-30
2023/08/24 03:13:13;;;;;;;7.78;6.57;;;;;;;31.60;31.99;96481.38;5083404;28;20052;-31
2023/08/24 03:15:39;;;;;;;10.00;7.22;;;;;;;32.02;31.01;96478.78;5083246;28;20086;-30
2023/08/24 03:18:04;;;;;;;8.38;6.65;;;;;;;31.95;31.65;96480.28;5083805;28;20020;-30
2023/08/24 03:20:30;;;;;;;7.43;6.72;;;;;;;31.94;30.94;96483.66;5074494;28;20048;-31
2023/08/24 03:22:55;;;;;;;9.55;6.95;;;;;;;31.83;31.47;96473.63;5080639;28;20024;-31
2023/08/24 03:25:21;;;;;;;7.47;6.50;;;;;;;31.86;31.07;96474.56;5080123;28;20028;-31
2023/08/24 03:27:47;;;;;;;7.38;6.65;;;;;;;31.82;31.11;96477.00;5080919;28;20020;-31
2023/08/24 03:30:13;;;;;;;7.15;6.15;;;;;;;31.92;31.23;96473.00;5078290;28;20020;-31
2023/08/24 03:32:40;;;;;;;9.15;6.57;;;;;;;31.67;31.36;96475.00;5082461;28;20020;-30
2023/08/24 03:35:06;;;;;;;10.55;7.00;;;;;;;31.59;31.35;96468.69;5085814;28;20020;-31
2023/08/24 03:37:32;;;;;;;6.95;6.30;;;;;;;31.81;31.41;96484.66;5083260;28;20020;-30
2023/08/24 03:39:57;;;;;;;6.82;6.22;;;;;;;31.85;30.71;96482.22;5088973;28;20066;-31
2023/08/24 03:42:23;;;;;;;6.35;5.75;;;;;;;31.85;31.29;96481.47;5085884;28;20034;-30
2023/08/24 03:44:48;;;;;;;8.40;6.15;;;;;;;31.82;31.35;96488.22;5087118;28;20013;-31
2023/08/24 03:47:14;;;;;;;11.85;6.82;;;;;;;31.69;30.65;96483.59;5086965;28;20112;-30
2023/08/24 03:49:43;;;;;;;10.63;7.00;;;;;;;31.84;30.82;96477.19;5086740;28;20017;-31
2023/08/24 03:52:08;;;;;;;9.05;6.88;;;;;;;31.87;30.99;96485.22;5086874;28;20349;-31
2023/08/24 03:54:34;;;;;;;9.05;6.88;;;;;;;31.84;31.16;96474.38;5086783;28;20020;-30
2023/08/24 03:56:59;;;;;;;9.05;6.32;;;;;;;31.80;31.14;96485.22;5087576;28;20024;-31
2023/08/24 03:59:24;;;;;;;7.72;6.75;;;;;;;31.76;31.26;96486.38;5082672;28;20047;-31
2023/08/24 04:01:50;;;;;;;8.13;7.32;;;;;;;31.78;31.08;96483.75;5091256;28;20024;-30
2023/08/24 04:04:15;;;;;;;10.85;7.25;;;;;;;31.92;31.24;96489.09;5086192;28;20016;-31
2023/08/24 04:06:41;;;;;;;7.75;6.95;;;;;;;31.94;30.74;96492.09;5083466;28;20024;-31
2023/08/24 04:09:06;;;;;;;7.72;6.82;;;;;;;31.76;31.12;96486.38;5082544;28;20031;-31
2023/08/24 04:11:32;;;;;;;7.22;6.47;;;;;;;31.82;30.82;96488.22;5079556;28;20020;-31
2023/08/24 04:13:57;;;;;;;9.07;6.40;;;;;;;31.85;30.74;96496.25;5084408;28;20034;-30
2023/08/24 04:16:23;;;;;;;9.10;6.30;;;;;;;31.87;30.75;96495.69;5088865;28;20483;-31
2023/08/24 04:18:48;;;;;;;7.78;6.03;;;;;;;31.76;30.90;96491.25;5087071;28;20022;-31
2023/08/24 04:21:13;;;;;;;6.90;6.25;;;;;;;31.67;31.25;96495.38;5093515;28;20016;-31
2023/08/24 04:23:44;;;;;;;6.22;5.60;;;;;;;31.80;30.56;96496.44;5088461;28;20109;-31
2023/08/24 04:26:13;;;;;;;6.78;5.40;;;;;;;31.73;30.65;96493.13;5089893;28;20032;-30
2023/08/24 04:28:38;;;;;;;8.00;6.20;;;;;;;31.70;30.43;96499.13;5080889;28;20032;-30
2023/08/24 04:31:03;;;;;;;8.00;5.50;;;;;;;31.56;31.24;96495.78;5087077;28;20040;-30
2023/08/24 04:33:29;;;;;;;7.57;5.78;;;;;;;31.72;30.85;96499.31;5086729;28;20025;-30
2023/08/24 04:35:54;;;;;;;7.55;5.75;;;;;;;31.53;31.49;96502.50;5088484;28;20476;-31
2023/08/24 04:38:20;;;;;;;7.53;5.85;;;;;;;31.73;30.76;96498.75;5084350;28;20121;-30
2023/08/24 04:40:52;;;;;;;6.70;6.03;;;;;;;31.72;30.80;96500.03;5086915;28;20473;-32
2023/08/24 04:43:19;;;;;;;6.13;5.50;;;;;;;31.61;31.46;96500.44;5086558;28;20036;-30
2023/08/24 04:45:48;;;;;;;11.65;5.68;;;;;;;31.70;30.97;96510.34;5086603;28;20027;-30
2023/08/24 04:48:14;;;;;;;6.63;5.75;;;;;;;31.45;31.62;96506.66;5085519;28;20028;-30
2023/08/24 04:50:43;;;;;;;8.63;6.07;;;;;;;31.41;31.73;96507.78;5086265;28;20106;-31
2023/08/24 04:53:09;;;;;;;7.78;5.93;;;;;;;31.31;32.18;96511.75;5083438;28;20028;-30
2023/08/24 04:55:34;;;;;;;5.75;5.25;;;;;;;31.35;32.09;96503.69;5075446;28;20027;-30
2023/08/24 04:57:59;;;;;;;7.22;5.95;;;;;;;31.44;32.47;96505.91;5083444;28;20111;-31
2023/08/24 05:00:25;;;;;;;8.02;5.80;;;;;;;31.36;32.21;96510.81;5085799;28;20026;-30
2023/08/24 05:02:51;;;;;;;8.35;5.95;;;;;;;31.57;32.01;96516.91;5086087;28;20115;-30
2023/08/24 05:05:17;;;;;;;7.90;5.78;;;;;;;31.34;32.17;96519.03;5075231;28;20016;-31
2023/08/24 05:07:42;;;;;;;7.63;5.80;;;;;;;31.48;32.61;96522.34;5083114;28;20462;-30
2023/08/24 05:10:08;;;;;;;7.78;6.10;;;;;;;31.68;31.95;96519.31;5082775;28;20035;-31
2023/08/24 05:12:35;;;;;;;9.63;6.65;;;;;;;31.58;32.05;96524.00;5084938;28;20031;-31
2023/08/24 05:15:04;;;;;;;9.38;5.82;;;;;;;31.47;32.87;96524.41;5079071;28;20380;-31
2023/08/24 05:17:31;;;;;;;7.28;6.03;;;;;;;31.58;32.55;96521.19;5084098;28;20024;-31
2023/08/24 05:19:57;;;;;;;8.27;5.90;;;;;;;31.67;32.76;96523.41;5086390;28;20035;-30
2023/08/24 05:22:23;;;;;;;8.55;5.53;;;;;;;31.67;32.22;96520.63;5085411;28;20028;-31
2023/08/24 05:24:48;;;;;;;10.50;5.80;;;;;;;31.68;32.16;96524.91;5085240;28;20099;-31
2023/08/24 05:27:15;;;;;;;7.00;6.20;;;;;;;31.65;32.84;96526.03;5080024;28;20473;-31
2023/08/24 05:29:41;;;;;;;10.40;6.05;;;;;;;31.55;32.93;96533.53;5090222;28;20024;-30
2023/08/24 05:32:06;;;;;;;9.95;5.88;;;;;;;31.47;32.92;96524.41;5082669;28;20465;-30
2023/08/24 05:34:31;;;;;;;10.70;6.28;;;;;;;31.71;32.63;96531.44;5075285;28;20085;-30
2023/08/24 05:36:57;;;;;;;7.18;5.88;;;;;;;31.60;33.00;96526.97;5089879;28;20096;-31
2023/08/24 05:39:22;;;;;;;6.78;6.00;;;;;;;31.53;33.07;96532.63;5082397;28;20491;-31
2023/08/24 05:41:52;;;;;;;6.53;5.85;;;;;;;31.76;32.95;96534.06;5082199;28;20031;-30
2023/08/24 05:44:18;;;;;;;7.68;6.18;;;;;;;31.69;33.03;96534.81;5078460;28;20024;-31
2023/08/24 05:46:44;;;;;;;5.85;5.07;;;;;;;31.61;33.36;96536.13;5076722;28;20033;-30
2023/08/24 05:49:09;;;;;;;8.85;6.18;;;;;;;31.70;33.96;96525.09;5082469;28;20089;-31
2023/08/24 05:51:35;;;;;;;6.18;5.55;;;;;;;31.68;34.14;96536.13;5082505;28;20032;-31
2023/08/24 05:54:00;;;;;;;7.35;6.00;;;;;;;31.69;33.88;96537.63;5081762;28;20027;-30
2023/08/24 05:56:26;;;;;;;7.75;5.68;;;;;;;31.59;34.77;96533.16;5081972;28;20032;-31
2023/08/24 05:58:51;;;;;;;12.20;5.90;;;;;;;31.74;34.50;96539.47;5080868;28;20016;-30
2023/08/24 06:01:17;;;;;;;7.80;5.75;;;;;;;31.75;34.33;96534.63;5075947;28;20507;-31
2023/08/24 06:03:43;;;;;;;10.63;5.93;;;;;;;31.67;34.03;96533.88;5085416;28;20091;-30
2023/08/24 06:06:09;;;;;;;7.63;6.20;;;;;;;31.67;35.03;96539.50;5077233;28;20032;-32
2023/08/24 06:08:35;;;;;;;7.55;6.13;;;;;;;31.80;34.59;96542.06;5084292;28;20016;-31
2023/08/24 06:11:00;;;;;;;9.23;6.10;;;;;;;31.77;34.67;96535.53;5078471;28;20032;-30
2023/08/24 06:13:26;;;;;;;8.82;6.65;;;;;;;31.75;35.08;96538.19;5082263;28;20028;-31
2023/08/24 06:15:52;;;;;;;6.95;6.18;;;;;;;31.78;34.65;96539.06;5080255;28;20127;-31
2023/08/24 06:18:17;;;;;;;8.43;6.93;;;;;;;31.70;34.56;96538.38;5081201;28;20031;-31
2023/08/24 06:20:43;;;;;;;10.75;6.10;;;;;;;31.72;35.24;96544.91;5083774;28;20028;-30
2023/08/24 06:23:08;;;;;;;7.65;6.28;;;;;;;31.79;35.28;96537.75;5085351;28;20033;-31
2023/08/24 06:25:35;;;;;;;9.13;6.28;;;;;;;31.72;35.32;96536.50;5082865;28;20028;-32
2023/08/24 06:28:03;;;;;;;8.30;6.57;;;;;;;31.71;35.40;96539.88;5081325;28;20029;-31
2023/08/24 06:30:29;;;;;;;8.70;6.22;;;;;;;31.84;35.36;96542.44;5081353;28;20480;-31
2023/08/24 06:32:54;;;;;;;11.32;6.45;;;;;;;31.87;34.98;96535.69;5083148;28;20021;-30
2023/08/24 06:35:20;;;;;;;9.15;6.88;;;;;;;31.85;35.02;96537.56;5086371;28;20023;-31
2023/08/24 06:37:45;;;;;;;8.73;6.28;;;;;;;31.66;36.04;96538.75;5081376;28;20013;-30
2023/08/24 06:40:11;;;;;;;9.77;6.55;;;;;;;31.81;35.39;96548.41;5081359;28;20032;-31
2023/08/24 06:42:36;;;;;;;10.35;6.13;;;;;;;31.80;35.94;96558.16;5088027;28;20377;-30
2023/08/24 06:45:02;;;;;;;8.55;6.75;;;;;;;31.89;35.52;96560.38;5081556;28;20033;-31
2023/08/24 06:47:28;;;;;;;7.93;6.72;;;;;;;31.92;35.38;96562.03;5080810;28;20039;-31
2023/08/24 06:49:53;;;;;;;10.02;6.13;;;;;;;32.02;35.36;96558.03;5081341;28;20067;-30
2023/08/24 06:52:19;;;;;;;7.60;6.90;;;;;;;32.07;35.24;96559.16;5076887;28;20019;-31
2023/08/24 06:54:44;;;;;;;8.10;5.90;;;;;;;32.08;35.32;96558.59;5078165;28;20044;-31
2023/08/24 06:57:10;;;;;;;7.78;6.25;;;;;;;32.02;35.47;96554.53;5080386;28;20024;-31
2023/08/24 06:59:35;;;;;;;8.70;6.63;;;;;;;32.02;35.84;96562.94;5083923;28;20024;-31
2023/08/24 07:02:00;;;;;;;12.73;7.55;;;;;;;31.83;35.97;96562.63;5076206;28;20474;-31
2023/08/24 07:04:27;;;;;;;11.20;7.80;;;;;;;31.82;36.11;96561.13;5081095;28;20016;-31
2023/08/24 07:06:53;;;;;;;11.50;7.95;;;;;;;32.05;35.44;96573.00;5079402;28;20022;-30
2023/08/24 07:09:19;;;;;;;10.63;7.50;;;;;;;31.59;36.40;96572.41;5082552;28;20020;-31
2023/08/24 07:11:44;;;;;;;9.77;7.75;;;;;;;31.93;35.46;96564.25;5080333;28;20035;-31
2023/08/24 07:14:10;;;;;;;9.32;7.25;;;;;;;31.80;36.10;96569.34;5080342;28;20396;-31
2023/08/24 07:16:35;;;;;;;11.82;8.05;;;;;;;32.02;35.23;96563.66;5087973;28;20451;-31
2023/08/24 07:19:02;;;;;;;9.52;7.30;;;;;;;32.11;35.60;96565.13;5073097;28;20493;-31
2023/08/24 07:21:27;;;;;;;10.98;7.15;;;;;;;32.12;35.27;96567.38;5080827;28;20059;-31
2023/08/24 07:23:52;;;;;;;8.73;7.65;;;;;;;31.69;35.97;96562.09;5080625;28;20051;-31
2023/08/24 07:26:18;;;;;;;11.48;7.18;;;;;;;31.84;36.00;96572.53;5086944;28;20111;-31
2023/08/24 07:28:43;;;;;;;14.85;7.60;;;;;;;32.14;35.09;96569.59;5080754;28;20365;-32
2023/08/24 07:31:10;;;;;;;10.20;7.25;;;;;;;32.16;35.16;96572.56;5080178;28;20031;-31
2023/08/24 07:33:38;;;;;;;10.32;7.50;;;;;;;32.24;35.00;96559.28;5079843;28;20024;-31
2023/08/24 07:36:04;;;;;;;10.18;7.03;;;;;;;32.31;35.04;96563.34;5080378;28;20355;-31
2023/08/24 07:38:31;;;;;;;8.05;7.07;;;;;;;32.29;35.28;96560.38;5079973;28;20048;-31
2023/08/24 07:40:57;;;;;;;9.18;7.45;;;;;;;32.34;35.22;96565.78;5074035;28;20043;-31
2023/08/24 07:43:23;;;;;;;9.45;7.18;;;;;;;32.55;34.71;96567.50;5078018;28;20539;-31
2023/08/24 07:45:48;;;;;;;8.25;7.30;;;;;;;32.41;35.04;96567.78;5082396;28;20104;-30
2023/08/24 07:48:15;;;;;;;11.18;7.10;;;;;;;32.46;35.04;96566.81;5080201;28;20032;-31
2023/08/24 07:50:40;;;;;;;10.90;7.45;;;;;;;32.48;34.97;96564.19;5080169;28;20423;-31
2023/08/24 07:53:06;;;;;;;9.32;7.57;;;;;;;32.53;34.80;96558.91;5080517;28;20021;-31
2023/08/24 07:55:31;;;;;;;12.30;7.30;;;;;;;32.46;35.19;96566.81;5079880;28;20051;-31
2023/08/24 07:57:57;;;;;;;10.38;7.75;;;;;;;32.46;35.24;96575.25;5080320;28;20020;-31
2023/08/24 08:00:24;;;;;;;9.20;7.55;;;;;;;32.46;35.16;96566.81;5080613;28;20020;-31
2023/08/24 08:02:50;;;;;;;8.13;7.07;;;;;;;32.42;35.14;96577.69;5079823;28;20025;-30
2023/08/24 08:05:16;;;;;;;9.38;7.20;;;;;;;32.53;35.14;96575.75;5079980;28;20024;-31
2023/08/24 08:07:42;;;;;;;12.05;7.55;;;;;;;32.60;35.19;96583.41;5077025;28;20099;-31
2023/08/24 08:10:08;;;;;;;8.32;7.53;;;;;;;32.51;35.03;96572.78;5076017;28;20104;-31
2023/08/24 08:12:34;;;;;;;9.57;7.22;;;;;;;32.54;35.32;96575.19;5080305;28;20468;-31
2023/08/24 08:15:00;;;;;;;10.75;7.00;;;;;;;32.48;35.02;96566.25;5085239;28;20439;-31
2023/08/24 08:17:27;;;;;;;8.07;7.28;;;;;;;32.63;34.95;96580.19;5082106;28;20029;-31
2023/08/24 08:19:56;;;;;;;8.55;7.03;;;;;;;32.53;35.16;96575.75;5083512;28;20393;-31
2023/08/24 08:22:22;;;;;;;9.30;7.30;;;;;;;32.51;35.18;96581.22;5083834;28;20029;-31
2023/08/24 08:24:47;;;;;;;9.32;6.93;;;;;;;32.58;34.70;96580.41;5079139;28;20420;-31
2023/08/24 08:27:13;;;;;;;11.82;7.55;;;;;;;32.61;35.04;96582.09;5087280;28;20027;-31
2023/08/24 08:29:38;;;;;;;7.88;7.07;;;;;;;32.65;34.90;96576.78;5078825;28;20059;-30
2023/08/24 08:32:05;;;;;;;11.88;7.47;;;;;;;32.56;34.96;96580.22;5090334;28;20078;-31
2023/08/24 08:34:31;;;;;;;9.05;7.55;;;;;;;32.61;34.90;96576.47;5090828;28;20362;-31
2023/08/24 08:36:57;;;;;;;8.50;7.57;;;;;;;32.66;34.81;96581.09;5083323;28;20065;-31
2023/08/24 08:39:23;;;;;;;9.30;7.20;;;;;;;32.62;34.84;96578.69;5074727;28;20040;-31
2023/08/24 08:41:49;;;;;;;8.68;7.70;;;;;;;32.62;34.62;96581.50;5090226;28;20047;-31
2023/08/24 08:44:14;;;;;;;10.45;7.72;;;;;;;32.70;34.57;96573.03;5086908;28;20031;-31
2023/08/24 08:46:43;;;;;;;9.75;7.75;;;;;;;32.61;34.86;96574.41;5086893;28;20026;-31
2023/08/24 08:49:15;;;;;;;8.80;7.90;;;;;;;32.60;34.70;96575.72;5082844;28;20035;-31
2023/08/24 08:51:41;;;;;;;9.53;7.33;;;;;;;32.67;34.50;96569.28;5083222;28;20461;-31
2023/08/24 08:54:06;;;;;;;8.65;7.78;;;;;;;32.73;34.78;96566.31;5084198;28;20089;-31
2023/08/24 08:56:35;;;;;;;10.57;7.53;;;;;;;32.76;34.44;96565.88;5086119;28;20024;-29
2023/08/24 08:59:02;;;;;;;11.80;8.10;;;;;;;32.69;34.74;96568.72;5079042;28;20025;-31
2023/08/24 09:01:27;;;;;;;8.57;7.68;;;;;;;32.62;35.05;96572.34;5082462;28;20162;-31
2023/08/24 09:03:54;;;;;;;8.10;7.20;;;;;;;32.69;34.86;96577.16;5083066;28;20016;-31
2023/08/24 09:06:22;;;;;;;11.32;8.32;;;;;;;32.71;34.81;96572.47;5090040;28;20024;-31
2023/08/24 09:08:49;;;;;;;8.73;7.82;;;;;;;32.85;34.65;96566.59;5082866;28;20361;-31
2023/08/24 09:11:17;;;;;;;11.02;7.15;;;;;;;32.72;34.92;96570.41;5089982;28;20051;-31
2023/08/24 09:13:42;;;;;;;8.70;7.85;;;;;;;32.70;34.92;96568.16;5082410;28;20470;-31
2023/08/24 09:16:08;;;;;;;8.55;7.75;;;;;;;32.74;34.98;96570.59;5082295;28;20050;-31
2023/08/24 09:18:38;;;;;;;9.73;8.25;;;;;;;32.79;34.91;96569.59;5076179;28;20044;-31
2023/08/24 09:21:10;;;;;;;8.70;7.80;;;;;;;32.79;34.89;96570.34;5088053;28;20024;-31
2023/08/24 09:24:06;;;;;;;9.75;8.13;;;;;;;32.80;34.92;96565.47;5083403;28;20399;-31
2023/08/24 09:26:36;;;;;;;10.55;7.88;;;;;;;32.80;34.88;96565.47;5078473;28;20043;-31
2023/08/24 09:29:13;;;;;;;10.18;8.15;;;;;;;32.85;35.00;96572.19;5075175;28;20052;-30
2023/08/24 09:31:39;;;;;;;8.65;7.80;;;;;;;32.94;34.42;96568.75;5082800;28;20024;-31
2023/08/24 09:34:05;;;;;;;10.63;8.25;;;;;;;32.90;34.69;96562.78;5082238;28;20031;-31
2023/08/24 09:36:35;;;;;;;10.48;7.35;;;;;;;32.91;34.69;96569.88;5082153;28;20031;-31
2023/08/24 09:39:04;;;;;;;10.10;7.97;;;;;;;32.90;34.50;96563.53;5082726;28;20045;-31
2023/08/24 09:41:43;;;;;;;9.25;7.45;;;;;;;32.90;34.46;96563.53;5082242;28;20032;-31
2023/08/24 09:44:10;;;;;;;14.73;8.30;;;;;;;32.98;34.33;96571.91;5082845;28;20017;-30
2023/08/24 09:46:39;;;;;;;8.38;7.53;;;;;;;32.95;34.29;96565.38;5088249;28;20035;-31
2023/08/24 09:49:09;;;;;;;10.32;8.20;;;;;;;33.01;33.91;96565.88;5083290;28;20472;-31
2023/08/24 09:51:36;;;;;;;8.20;7.40;;;;;;;32.99;34.17;96562.91;5080580;28;20024;-31
2023/08/24 09:54:09;;;;;;;8.65;7.85;;;;;;;33.02;34.27;96558.94;5083915;28;20035;-31
2023/08/24 09:56:39;;;;;;;14.80;8.10;;;;;;;33.00;34.21;96566.47;5081918;28;20020;-31
2023/08/24 09:59:18;;;;;;;13.35;8.10;;;;;;;33.05;34.23;96569.03;5082031;28;20145;-31
2023/08/24 10:01:47;;;;;;;9.10;7.75;;;;;;;33.06;34.35;96569.78;5081886;28;20024;-31
2023/08/24 10:04:14;;;;;;;9.63;8.13;;;;;;;33.01;34.63;96554.63;5082443;28;20066;-31
2023/08/24 10:06:40;;;;;;;9.52;7.63;;;;;;;33.12;34.36;96561.84;5089023;28;20028;-31
2023/08/24 10:09:38;;;;;;;8.77;7.80;;;;;;;33.12;34.42;96556.97;5081791;28;20104;-31
2023/08/24 10:12:05;;;;;;;9.85;8.82;;;;;;;33.13;34.20;96555.66;5080835;28;20019;-31
2023/08/24 10:14:32;;;;;;;10.23;8.10;;;;;;;33.11;34.32;96557.56;5076008;28;20109;-31
2023/08/24 10:16:58;;;;;;;8.73;7.72;;;;;;;33.13;34.22;96552.84;5080109;28;20488;-31
2023/08/24 10:19:25;;;;;;;10.07;7.28;;;;;;;33.24;33.43;96540.41;5082017;28;20115;-31
2023/08/24 10:21:53;;;;;;;10.43;8.20;;;;;;;33.22;33.31;96548.66;5077152;28;20027;-31
2023/08/24 10:24:23;;;;;;;8.68;7.82;;;;;;;33.19;33.35;96550.53;5078090;28;20017;-31
2023/08/24 10:26:49;;;;;;;9.82;8.05;;;;;;;33.21;33.42;96541.53;5076747;28;20027;-31
2023/08/24 10:29:16;;;;;;;8.32;7.63;;;;;;;33.16;33.33;96545.31;5078673;28;20033;-30
2023/08/24 10:31:43;;;;;;;8.60;7.13;;;;;;;33.24;33.21;96545.28;5080976;28;20103;-31
2023/08/24 10:34:09;;;;;;;10.23;7.85;;;;;;;33.22;33.21;96536.66;5074502;28;20013;-31
2023/08/24 10:36:37;;;;;;;8.73;7.70;;;;;;;33.33;33.40;96536.19;5081604;28;20062;-31
2023/08/24 10:39:06;;;;;;;8.13;7.43;;;;;;;33.29;33.28;96533.78;5081212;28;20043;-31
2023/08/24 10:42:06;;;;;;;8.70;7.07;;;;;;;33.27;32.62;96536.44;5081309;28;20024;-31
2023/08/24 10:44:35;;;;;;;11.43;7.07;;;;;;;33.37;32.55;96536.53;5068829;28;20046;-31
2023/08/24 10:47:15;;;;;;;10.15;7.30;;;;;;;33.30;32.61;96520.47;5074083;28;20078;-31
2023/08/24 10:49:42;;;;;;;8.75;7.28;;;;;;;33.32;32.59;96529.81;5081517;28;20044;-31
2023/08/24 10:52:20;;;;;;;7.72;6.97;;;;;;;33.38;32.19;96521.88;5081252;28;20456;-31
2023/08/24 10:54:50;;;;;;;10.45;6.97;;;;;;;33.39;31.83;96522.63;5080484;28;20347;-32
2023/08/24 10:57:23;;;;;;;8.40;7.35;;;;;;;33.37;32.09;96530.91;5074323;28;20115;-32
2023/08/24 11:00:05;;;;;;;9.93;7.80;;;;;;;33.39;31.55;96517.00;5084329;28;20483;-31
2023/08/24 11:02:47;;;;;;;7.82;7.13;;;;;;;33.48;31.72;96519.16;5080848;28;20031;-31
2023/08/24 11:05:21;;;;;;;8.32;7.47;;;;;;;33.43;31.59;96523.72;5080726;28;20029;-31
2023/08/24 11:07:54;;;;;;;9.75;7.05;;;;;;;33.52;30.49;96520.22;5080553;28;20024;-31
2023/08/24 11:10:21;;;;;;;8.35;6.13;;;;;;;33.54;29.87;96523.22;5081886;28;20016;-31
2023/08/24 11:13:05;;;;;;;8.38;6.15;;;;;;;33.51;29.68;96518.00;5084220;28;20020;-31
2023/08/24 11:15:31;;;;;;;8.88;6.43;;;;;;;33.47;29.80;96526.13;5082308;28;20024;-31
2023/08/24 11:18:11;;;;;;;6.82;5.97;;;;;;;33.53;29.43;96523.78;5083498;28;20035;-31
2023/08/24 11:20:37;;;;;;;8.00;6.47;;;;;;;33.52;29.54;96522.28;5080946;28;20614;-31
2023/08/24 11:23:03;;;;;;;7.30;6.30;;;;;;;33.53;29.74;96518.91;5078376;28;20063;-31
2023/08/24 11:25:28;;;;;;;7.68;6.40;;;;;;;33.47;29.68;96517.69;5083475;28;20021;-30
2023/08/24 11:27:54;;;;;;;7.47;6.47;;;;;;;33.54;29.33;96514.78;5081029;28;20020;-31
2023/08/24 11:30:19;;;;;;;8.45;6.80;;;;;;;33.54;29.39;96516.84;5079193;28;20035;-31
2023/08/24 11:32:52;;;;;;;6.82;6.07;;;;;;;33.49;29.21;96518.59;5081264;28;20020;-31